Ziguinchor, Ziguinchor Airport (GOGG)

NameZiguinchor Airport
CityZiguinchor
CountrySenegal
ICAOGOGG
IATAZIG
Altitude7 m
CoordinatesGoogle Map
Live Air TrafficLiveATC.net
METARGOGG 151400Z 20006KT 9999 BKN016TCU 33/26 Q1010
2019-10-15 14:00:00 Wind: South (200°) 3.09 m/s - Visibility: > 10000 m - Temperature: 33 °C - Dew point: 26 °C - Humidity: 66.7% - Pressure: 1010 hPa

Sorry, no flights used the airport in this database.